Time;durP1;ratioP1;P1;durP2;ratioP2;P2;SDS_P1;SDS_P2;PMS_P1;PMS_P2;Temp;Humidity;BMP_temperature;BMP_pressure;BME280_temperature;BME280_humidity;BME280_pressure;Samples;Min_cycle;Max_cycle;Signal;HPM_P1;HPM_P2
2022/11/29 00:00:54;;;;;;;25.88;12.55;;;7.50;99.90;;;;;;4994471;28;20028;-69
2022/11/29 00:03:19;;;;;;;24.90;12.88;;;7.40;99.90;;;;;;4994695;28;20105;-69
2022/11/29 00:05:45;;;;;;;25.48;11.82;;;7.40;99.90;;;;;;4993243;28;20034;-69
2022/11/29 00:08:11;;;;;;;27.00;11.63;;;7.50;99.90;;;;;;4994525;28;20034;-69
2022/11/29 00:10:37;;;;;;;23.60;11.93;;;7.50;99.90;;;;;;4992906;28;20117;-69
2022/11/29 00:13:03;;;;;;;20.20;10.27;;;7.50;99.90;;;;;;4993893;28;20110;-69
2022/11/29 00:15:29;;;;;;;21.45;10.80;;;7.50;99.90;;;;;;4992890;28;20026;-69
2022/11/29 00:17:54;;;;;;;25.67;12.25;;;7.50;99.90;;;;;;4994392;28;20030;-69
2022/11/29 00:20:20;;;;;;;22.75;12.27;;;7.60;99.90;;;;;;4994613;28;20029;-69
2022/11/29 00:22:46;;;;;;;26.83;11.38;;;7.60;99.90;;;;;;4993131;28;20022;-69
2022/11/29 00:25:11;;;;;;;22.65;11.55;;;7.60;99.90;;;;;;4994093;28;20026;-69
2022/11/29 00:27:37;;;;;;;26.98;12.10;;;7.70;99.90;;;;;;4992778;28;20023;-69
2022/11/29 00:30:03;;;;;;;25.25;11.93;;;7.70;99.90;;;;;;4993103;28;20029;-69
2022/11/29 00:32:29;;;;;;;22.13;11.55;;;7.70;99.90;;;;;;4993846;28;20089;-69
2022/11/29 00:34:54;;;;;;;22.10;11.18;;;7.70;99.90;;;;;;4994240;28;20054;-69
2022/11/29 00:37:20;;;;;;;25.48;11.40;;;7.70;99.90;;;;;;4994218;28;20034;-69
2022/11/29 00:39:45;;;;;;;28.20;12.70;;;7.70;99.90;;;;;;4993924;28;20064;-69
2022/11/29 00:42:11;;;;;;;23.60;12.32;;;7.70;99.90;;;;;;4993911;28;20038;-70
2022/11/29 00:44:36;;;;;;;25.38;12.48;;;7.70;99.90;;;;;;4992922;28;20019;-70
2022/11/29 00:47:02;;;;;;;23.77;11.82;;;7.80;99.90;;;;;;4993684;28;20029;-70
2022/11/29 00:49:27;;;;;;;24.30;12.48;;;7.80;99.90;;;;;;4992962;28;20037;-69
2022/11/29 00:51:53;;;;;;;25.80;12.27;;;7.80;99.90;;;;;;4993838;28;20027;-69
2022/11/29 00:54:18;;;;;;;22.58;11.50;;;7.80;99.90;;;;;;4992900;28;20031;-69
2022/11/29 00:56:44;;;;;;;26.98;12.32;;;7.80;99.90;;;;;;4993958;28;20026;-69
2022/11/29 00:59:10;;;;;;;23.83;12.07;;;7.80;99.90;;;;;;4993744;28;20061;-68
2022/11/29 01:01:35;;;;;;;27.38;10.88;;;7.80;99.90;;;;;;4992444;28;20061;-67
2022/11/29 01:04:01;;;;;;;26.10;11.57;;;7.70;99.90;;;;;;4993712;28;20027;-67
2022/11/29 01:06:27;;;;;;;23.35;11.48;;;7.80;99.90;;;;;;4992833;28;20026;-67
2022/11/29 01:08:53;;;;;;;25.63;12.15;;;7.90;99.90;;;;;;4992489;28;20449;-67
2022/11/29 01:11:23;;;;;;;22.75;11.02;;;7.80;99.90;;;;;;4993936;28;20036;-67
2022/11/29 01:13:50;;;;;;;24.67;11.63;;;7.80;99.90;;;;;;4992601;28;20027;-67
2022/11/29 01:16:16;;;;;;;27.95;12.57;;;7.70;99.90;;;;;;4992280;28;20034;-67
2022/11/29 01:18:43;;;;;;;25.02;11.82;;;7.70;99.90;;;;;;4993169;28;20030;-67
2022/11/29 01:21:12;;;;;;;28.45;12.73;;;7.70;99.90;;;;;;4992372;28;20110;-67
2022/11/29 01:23:39;;;;;;;28.42;12.35;;;7.60;99.90;;;;;;4992134;28;20027;-67
2022/11/29 01:26:11;;;;;;;33.47;13.00;;;7.60;99.90;;;;;;4996277;28;20173;-67
2022/11/29 01:28:39;;;;;;;35.83;13.98;;;7.60;99.90;;;;;;4997260;28;20045;-67
2022/11/29 01:31:09;;;;;;;33.35;14.30;;;7.60;99.90;;;;;;4997128;28;20031;-67
2022/11/29 01:33:35;;;;;;;40.47;14.70;;;7.60;99.90;;;;;;4997090;28;20061;-67
2022/11/29 01:36:03;;;;;;;38.78;15.38;;;7.60;99.90;;;;;;4997094;28;20058;-67
2022/11/29 01:38:29;;;;;;;34.75;14.43;;;7.50;99.90;;;;;;4995692;28;20022;-67
2022/11/29 01:40:59;;;;;;;42.08;14.98;;;7.50;99.90;;;;;;4996914;28;20072;-67
2022/11/29 01:43:25;;;;;;;39.17;15.52;;;7.50;99.90;;;;;;4995488;28;20061;-67
2022/11/29 01:45:50;;;;;;;34.88;14.50;;;7.50;99.90;;;;;;4996750;28;20065;-67
2022/11/29 01:48:17;;;;;;;38.13;14.80;;;7.50;99.90;;;;;;4996752;28;20041;-67
2022/11/29 01:50:42;;;;;;;43.38;15.27;;;7.60;99.90;;;;;;4995626;28;20057;-67
2022/11/29 01:53:09;;;;;;;29.90;13.90;;;7.70;99.90;;;;;;4995475;28;20026;-67
2022/11/29 01:55:37;;;;;;;28.45;13.63;;;7.80;99.90;;;;;;4995975;28;20058;-67
2022/11/29 01:58:05;;;;;;;33.45;13.80;;;7.80;99.90;;;;;;4995475;28;20029;-67
2022/11/29 02:00:31;;;;;;;32.08;14.52;;;7.90;99.90;;;;;;4996641;28;20037;-67
2022/11/29 02:03:04;;;;;;;36.95;14.30;;;7.90;99.90;;;;;;4996690;28;20018;-67
2022/11/29 02:05:31;;;;;;;37.30;15.40;;;7.90;99.90;;;;;;4995401;28;20474;-67
2022/11/29 02:07:59;;;;;;;40.05;15.98;;;7.90;99.90;;;;;;4996110;28;20019;-67
2022/11/29 02:10:48;;;;;;;39.58;15.27;;;7.90;99.90;;;;;;4995601;28;20046;-67
2022/11/29 02:13:26;;;;;;;34.00;14.63;;;7.90;99.90;;;;;;4996374;28;20029;-67
2022/11/29 02:16:07;;;;;;;39.30;16.52;;;7.80;99.90;;;;;;4996564;28;20057;-67
2022/11/29 02:18:56;;;;;;;50.70;16.88;;;7.80;99.90;;;;;;4996352;28;20069;-67
2022/11/29 02:21:45;;;;;;;47.08;15.43;;;7.80;99.90;;;;;;4996864;28;20135;-67
2022/11/29 02:24:32;;;;;;;39.60;15.95;;;7.70;99.90;;;;;;4996338;28;20042;-67
2022/11/29 02:27:24;;;;;;;47.15;17.55;;;7.60;99.90;;;;;;4995708;28;20037;-67
2022/11/29 02:29:59;;;;;;;49.17;16.58;;;7.60;99.90;;;;;;4995007;28;20027;-69
2022/11/29 02:32:51;;;;;;;50.20;17.23;;;7.50;99.90;;;;;;4994800;28;20026;-69
2022/11/29 02:35:40;;;;;;;44.13;17.27;;;7.50;99.90;;;;;;4995821;28;20030;-69
2022/11/29 02:38:33;;;;;;;55.20;16.55;;;7.40;99.90;;;;;;4996263;28;20117;-69
2022/11/29 02:41:02;;;;;;;48.33;16.73;;;7.40;99.90;;;;;;4994898;28;20034;-69
2022/11/29 02:43:28;;;;;;;43.63;16.88;;;7.40;99.90;;;;;;4994817;28;20062;-69
2022/11/29 02:46:10;;;;;;;56.97;18.88;;;7.40;99.90;;;;;;4994979;28;20052;-69
2022/11/29 02:48:54;;;;;;;44.45;17.92;;;7.40;99.90;;;;;;4994667;28;20037;-69
2022/11/29 02:51:38;;;;;;;52.13;18.30;;;7.30;99.90;;;;;;4994554;28;20054;-69
2022/11/29 02:54:11;;;;;;;49.95;17.80;;;7.30;99.90;;;;;;4995305;28;20026;-69
2022/11/29 02:56:51;;;;;;;46.78;17.60;;;7.40;99.90;;;;;;4994393;28;20121;-69
2022/11/29 02:59:34;;;;;;;49.40;17.92;;;7.40;99.90;;;;;;4995625;28;20023;-69
2022/11/29 03:02:21;;;;;;;50.65;17.50;;;7.30;99.90;;;;;;4994254;28;20023;-69
2022/11/29 03:04:55;;;;;;;55.78;18.45;;;7.30;99.90;;;;;;4996035;28;20022;-69
2022/11/29 03:07:27;;;;;;;55.78;17.98;;;7.30;99.90;;;;;;4994425;28;20022;-69
2022/11/29 03:10:14;;;;;;;48.63;16.92;;;7.30;99.90;;;;;;4995735;28;20504;-69
2022/11/29 03:12:47;;;;;;;52.80;18.02;;;7.30;99.90;;;;;;4994072;28;20042;-69
2022/11/29 03:15:31;;;;;;;50.83;17.92;;;7.20;99.90;;;;;;4995463;28;20031;-69
2022/11/29 03:18:07;;;;;;;59.88;18.30;;;7.30;99.90;;;;;;4995104;28;20049;-69
2022/11/29 03:21:02;;;;;;;60.63;19.50;;;7.20;99.90;;;;;;4994836;28;20022;-69
2022/11/29 03:23:49;;;;;;;52.63;17.60;;;7.30;99.90;;;;;;4994626;28;20022;-69
2022/11/29 03:26:28;;;;;;;53.90;16.80;;;7.30;99.90;;;;;;4994820;28;20038;-69
2022/11/29 03:29:16;;;;;;;53.03;18.05;;;7.30;99.90;;;;;;4995511;28;20101;-69
2022/11/29 03:32:02;;;;;;;52.20;17.13;;;7.30;99.90;;;;;;4993511;28;20054;-69
2022/11/29 03:34:43;;;;;;;56.28;18.25;;;7.30;99.90;;;;;;4994843;28;20026;-69
2022/11/29 03:37:20;;;;;;;62.80;19.13;;;7.30;99.90;;;;;;4995341;28;20145;-69
2022/11/29 03:39:48;;;;;;;53.38;17.33;;;7.30;99.90;;;;;;4994788;28;20026;-69
2022/11/29 03:42:21;;;;;;;60.08;18.20;;;7.30;99.90;;;;;;4993492;28;20085;-69
2022/11/29 03:45:09;;;;;;;53.35;18.20;;;7.30;99.90;;;;;;4994981;28;20026;-69
2022/11/29 03:47:41;;;;;;;59.10;18.02;;;7.30;99.90;;;;;;4994082;28;20097;-69
2022/11/29 03:50:17;;;;;;;52.13;17.90;;;7.20;99.90;;;;;;4994099;28;20026;-69
2022/11/29 03:53:02;;;;;;;58.35;18.75;;;7.20;99.90;;;;;;4993292;28;20387;-69
2022/11/29 03:55:46;;;;;;;70.22;19.73;;;7.20;99.90;;;;;;4995092;28;20110;-69
2022/11/29 03:58:38;;;;;;;62.03;18.98;;;7.20;99.90;;;;;;4993268;28;20509;-69
2022/11/29 04:01:20;;;;;;;56.67;18.75;;;7.20;99.90;;;;;;4993333;28;20186;-69
2022/11/29 04:04:18;;;;;;;60.67;18.25;;;7.20;99.90;;;;;;4993102;28;20038;-69
2022/11/29 04:07:26;;;;;;;71.45;19.42;;;7.10;99.90;;;;;;4994702;28;20029;-70
2022/11/29 04:10:01;;;;;;;69.68;19.33;;;7.20;99.90;;;;;;4993065;28;20033;-69
2022/11/29 04:12:26;;;;;;;66.15;20.10;;;7.20;99.90;;;;;;4992969;28;20022;-69
2022/11/29 04:15:22;;;;;;;67.70;19.35;;;7.20;99.90;;;;;;4994271;28;20038;-69
2022/11/29 04:18:09;;;;;;;52.85;18.60;;;7.30;99.90;;;;;;4994377;28;20046;-69
2022/11/29 04:21:13;;;;;;;60.72;19.58;;;7.30;99.90;;;;;;4992922;28;20025;-69
2022/11/29 04:24:02;;;;;;;58.08;18.05;;;7.30;99.90;;;;;;4994048;28;20101;-69
2022/11/29 04:26:49;;;;;;;56.00;17.35;;;7.30;99.90;;;;;;4994043;28;20146;-69
2022/11/29 04:29:20;;;;;;;62.30;20.55;;;7.30;99.90;;;;;;4994041;28;20077;-69
2022/11/29 04:32:08;;;;;;;52.97;17.95;;;7.30;99.90;;;;;;4993823;28;20042;-69
2022/11/29 04:35:14;;;;;;;52.55;16.90;;;7.40;99.90;;;;;;4994340;28;20619;-69
2022/11/29 04:38:04;;;;;;;49.92;17.30;;;7.40;99.90;;;;;;4993817;28;20109;-69
2022/11/29 04:40:59;;;;;;;56.72;17.15;;;7.40;99.90;;;;;;4992748;28;20081;-69
2022/11/29 04:44:02;;;;;;;53.72;17.02;;;7.40;99.90;;;;;;4957818;28;20058;-68
2022/11/29 04:46:28;;;;;;;50.10;17.05;;;7.50;99.90;;;;;;4994145;28;20041;-68
2022/11/29 04:49:24;;;;;;;48.60;17.05;;;7.50;99.90;;;;;;4993796;28;20031;-68
2022/11/29 04:52:08;;;;;;;60.83;18.05;;;7.60;99.90;;;;;;4993896;28;20027;-68
2022/11/29 04:55:19;;;;;;;58.00;17.17;;;7.50;99.90;;;;;;4992707;28;20078;-68
2022/11/29 04:58:04;;;;;;;54.35;18.20;;;7.50;99.90;;;;;;4898902;29;20036;-68
2022/11/29 05:00:38;;;;;;;49.78;17.30;;;7.50;99.90;;;;;;4992167;28;20085;-68
2022/11/29 05:03:14;;;;;;;60.13;18.73;;;7.60;99.90;;;;;;4996440;28;20093;-68
2022/11/29 05:05:52;;;;;;;49.83;16.20;;;7.50;99.90;;;;;;4996467;28;20026;-68
2022/11/29 05:08:33;;;;;;;53.20;16.55;;;7.40;99.90;;;;;;4998007;28;20026;-68
2022/11/29 05:11:29;;;;;;;51.22;17.63;;;7.30;99.90;;;;;;4996465;28;20089;-68
2022/11/29 05:14:18;;;;;;;53.95;18.27;;;7.30;99.90;;;;;;4997422;28;20456;-68
2022/11/29 05:16:59;;;;;;;52.67;17.33;;;7.30;99.90;;;;;;4997724;28;20073;-68
2022/11/29 05:19:55;;;;;;;62.37;17.43;;;7.40;99.90;;;;;;4997923;28;20022;-68
2022/11/29 05:23:04;;;;;;;48.30;16.90;;;7.40;99.90;;;;;;4996908;28;20033;-68
2022/11/29 05:25:54;;;;;;;52.85;17.33;;;7.30;99.90;;;;;;4997355;28;20022;-68
2022/11/29 05:28:32;;;;;;;48.22;15.65;;;7.30;99.90;;;;;;4996132;28;20109;-68
2022/11/29 05:31:08;;;;;;;55.90;17.52;;;7.30;99.90;;;;;;4997346;28;20033;-68
2022/11/29 05:33:46;;;;;;;56.42;16.27;;;7.30;99.90;;;;;;4997361;28;20026;-68
2022/11/29 05:36:49;;;;;;;39.80;14.77;;;7.30;99.90;;;;;;4996564;28;20023;-68
2022/11/29 05:39:43;;;;;;;44.20;15.65;;;7.30;99.90;;;;;;4996274;28;20041;-68
2022/11/29 05:42:35;;;;;;;51.40;15.93;;;7.30;99.90;;;;;;4995838;28;20065;-68
2022/11/29 05:45:23;;;;;;;48.67;16.17;;;7.30;99.90;;;;;;4918141;29;20043;-68
2022/11/29 05:47:59;;;;;;;51.50;16.52;;;7.30;99.90;;;;;;4918093;29;20032;-68
2022/11/29 05:50:31;;;;;;;48.90;16.13;;;7.30;99.90;;;;;;4918142;29;20388;-68
2022/11/29 05:53:10;;;;;;;43.47;15.00;;;7.40;99.90;;;;;;4902170;29;20154;-68
2022/11/29 05:56:03;;;;;;;46.72;15.68;;;7.30;99.90;;;;;;4918077;29;20059;-68
2022/11/29 05:58:49;;;;;;;45.60;15.82;;;7.30;99.90;;;;;;4918297;29;20476;-68
2022/11/29 06:01:28;;;;;;;46.97;16.20;;;7.40;99.90;;;;;;4918327;29;20028;-68
2022/11/29 06:04:16;;;;;;;38.08;13.75;;;7.40;99.90;;;;;;4902055;29;20094;-68
2022/11/29 06:06:43;;;;;;;41.75;16.48;;;7.30;99.90;;;;;;4917774;29;20056;-68
2022/11/29 06:09:18;;;;;;;48.85;15.63;;;7.30;99.90;;;;;;4902494;29;20039;-68
2022/11/29 06:11:47;;;;;;;47.15;15.57;;;7.30;99.90;;;;;;4917330;29;20040;-68
2022/11/29 06:14:49;;;;;;;51.50;15.50;;;7.30;99.90;;;;;;4901767;29;20028;-68
2022/11/29 06:17:54;;;;;;;55.10;16.40;;;7.40;99.90;;;;;;4901607;29;20543;-68
2022/11/29 06:20:19;;;;;;;54.08;16.65;;;7.40;99.90;;;;;;4861386;29;20029;-68
2022/11/29 06:23:12;;;;;;;45.90;15.40;;;7.40;99.90;;;;;;4928704;29;20047;-68
2022/11/29 06:26:15;;;;;;;44.63;14.45;;;7.40;99.90;;;;;;4955724;29;20045;-68
2022/11/29 06:29:05;;;;;;;37.40;14.05;;;7.50;99.90;;;;;;4955533;29;20071;-68
2022/11/29 06:31:37;;;;;;;43.28;14.77;;;7.50;99.90;;;;;;4955561;29;20659;-68
2022/11/29 06:34:09;;;;;;;49.80;15.50;;;7.50;99.90;;;;;;4955953;29;20031;-68
2022/11/29 06:37:13;;;;;;;36.10;14.20;;;7.50;99.90;;;;;;4955423;29;20555;-68
2022/11/29 06:39:39;;;;;;;39.72;13.35;;;7.40;99.90;;;;;;4954927;29;20032;-68
2022/11/29 06:42:04;;;;;;;40.53;14.95;;;7.40;99.90;;;;;;4955579;29;20164;-68
2022/11/29 06:44:30;;;;;;;37.72;13.48;;;7.40;99.90;;;;;;4955800;29;20035;-68
2022/11/29 06:47:07;;;;;;;44.75;13.57;;;7.50;99.90;;;;;;4955077;29;20123;-68
2022/11/29 06:49:52;;;;;;;51.00;14.48;;;7.40;99.90;;;;;;4955815;29;20039;-68
2022/11/29 06:52:46;;;;;;;37.50;13.77;;;7.50;99.90;;;;;;4995674;28;20022;-68
2022/11/29 06:55:36;;;;;;;38.20;15.05;;;7.40;99.90;;;;;;4994165;28;20026;-68
2022/11/29 06:58:34;;;;;;;41.42;15.15;;;7.50;99.90;;;;;;4995622;28;20105;-68
2022/11/29 07:01:36;;;;;;;50.45;16.65;;;7.50;99.90;;;;;;4900918;29;20036;-68
2022/11/29 07:04:44;;;;;;;49.63;14.70;;;7.60;99.90;;;;;;4900762;29;20031;-68
2022/11/29 07:07:17;;;;;;;34.25;13.52;;;7.50;99.90;;;;;;4916996;29;20036;-68
2022/11/29 07:09:44;;;;;;;31.80;13.07;;;7.40;99.90;;;;;;4900745;29;20127;-68
2022/11/29 07:12:10;;;;;;;41.53;14.20;;;7.40;99.90;;;;;;4900866;29;20032;-68
2022/11/29 07:14:36;;;;;;;38.58;13.85;;;7.40;99.90;;;;;;4901200;29;20039;-68
2022/11/29 07:17:07;;;;;;;42.72;14.48;;;7.40;99.90;;;;;;4916624;29;20032;-68
2022/11/29 07:19:42;;;;;;;36.97;13.55;;;7.40;99.90;;;;;;4917013;29;20028;-68
2022/11/29 07:22:28;;;;;;;35.90;12.85;;;7.30;99.90;;;;;;4915598;29;20084;-68
2022/11/29 07:25:21;;;;;;;33.75;13.32;;;7.40;99.90;;;;;;4900759;29;20033;-68
2022/11/29 07:28:14;;;;;;;42.63;13.80;;;7.30;99.90;;;;;;4916545;29;20034;-68
2022/11/29 07:31:09;;;;;;;43.85;14.38;;;7.40;99.90;;;;;;4916622;29;20119;-68
2022/11/29 07:34:01;;;;;;;42.05;13.80;;;7.40;99.90;;;;;;4859903;29;20080;-68
2022/11/29 07:36:36;;;;;;;39.78;14.68;;;7.40;99.90;;;;;;4870161;29;20033;-68
2022/11/29 07:39:18;;;;;;;42.20;14.52;;;7.60;99.90;;;;;;4954537;29;20036;-68
2022/11/29 07:41:43;;;;;;;;;;;7.50;99.90;;;;;;4954763;29;20073;-68
2022/11/29 07:44:57;;;;;;;38.45;13.75;;;7.50;99.90;;;;;;4954090;29;19954;-68
2022/11/29 07:47:23;;;;;;;36.35;13.70;;;7.40;99.90;;;;;;4954311;29;20072;-68
2022/11/29 07:49:48;;;;;;;36.53;13.38;;;7.30;99.90;;;;;;4953906;29;20031;-68
2022/11/29 07:52:15;;;;;;;39.60;14.68;;;7.30;99.90;;;;;;4953754;28;20031;-68
2022/11/29 07:54:41;;;;;;;47.05;16.02;;;7.30;99.90;;;;;;4953821;28;20059;-68
2022/11/29 07:57:06;;;;;;;45.65;14.95;;;7.50;99.90;;;;;;4953740;28;20121;-68
2022/11/29 07:59:32;;;;;;;46.05;13.80;;;7.60;99.90;;;;;;4954228;28;20078;-68
2022/11/29 08:01:58;;;;;;;41.22;13.60;;;7.50;99.90;;;;;;4953885;29;20028;-68
2022/11/29 08:04:23;;;;;;;32.03;12.60;;;7.50;99.90;;;;;;4953709;28;20040;-68
2022/11/29 08:06:49;;;;;;;39.33;12.98;;;7.50;99.90;;;;;;4953725;29;20034;-68
2022/11/29 08:09:14;;;;;;;39.92;14.48;;;7.40;99.90;;;;;;4956334;28;20034;-68
2022/11/29 08:11:40;;;;;;;41.53;13.38;;;7.50;99.90;;;;;;4995152;28;20026;-68
2022/11/29 08:14:06;;;;;;;39.42;13.57;;;7.50;99.90;;;;;;4993603;28;20030;-68
2022/11/29 08:16:31;;;;;;;40.80;14.43;;;7.50;99.90;;;;;;4994158;28;20076;-68
2022/11/29 08:18:57;;;;;;;41.13;13.07;;;7.60;99.90;;;;;;4993063;28;20030;-68
2022/11/29 08:21:23;;;;;;;36.17;13.60;;;7.60;99.90;;;;;;4994350;28;20022;-68
2022/11/29 08:23:49;;;;;;;35.75;12.52;;;7.50;99.90;;;;;;4993155;28;20027;-68
2022/11/29 08:26:17;;;;;;;37.60;13.68;;;7.40;99.90;;;;;;4992994;28;20038;-68
2022/11/29 08:28:42;;;;;;;41.00;13.25;;;7.60;99.90;;;;;;4992901;28;20022;-68
2022/11/29 08:31:10;;;;;;;43.50;14.15;;;7.50;99.90;;;;;;4993142;28;20033;-68
2022/11/29 08:33:42;;;;;;;42.33;13.85;;;7.50;99.90;;;;;;4993652;28;20030;-69
2022/11/29 08:36:09;;;;;;;;;;;7.50;99.90;;;;;;4994559;28;20034;-69
2022/11/29 08:38:35;;;;;;;47.20;13.80;;;7.50;99.90;;;;;;4993365;28;19910;-69
2022/11/29 08:41:05;;;;;;;31.00;13.55;;;7.50;99.90;;;;;;4994030;28;20031;-68
2022/11/29 08:43:31;;;;;;;39.10;13.07;;;7.50;99.90;;;;;;4992707;28;20062;-68
2022/11/29 08:45:57;;;;;;;39.70;13.65;;;7.40;99.90;;;;;;4994208;28;20069;-68
2022/11/29 08:48:23;;;;;;;54.63;16.13;;;7.40;99.90;;;;;;4992574;28;20019;-68
2022/11/29 08:50:50;;;;;;;43.75;14.10;;;7.40;99.90;;;;;;4993896;28;20092;-68
2022/11/29 08:56:01;;;;;;;38.05;14.50;;;7.60;99.90;;;;;;4993823;28;20032;-68
2022/11/29 08:58:27;;;;;;;51.35;15.48;;;7.70;99.90;;;;;;4992940;28;20026;-68
2022/11/29 09:00:53;;;;;;;57.67;17.58;;;7.80;99.90;;;;;;4992496;28;20022;-68
2022/11/29 09:06:07;;;;;;;52.05;16.77;;;7.90;99.90;;;;;;4994423;28;20068;-66
2022/11/29 09:08:33;;;;;;;53.33;16.95;;;7.90;99.90;;;;;;4992470;28;20030;-66
2022/11/29 09:10:59;;;;;;;42.67;15.27;;;7.90;99.90;;;;;;4992820;28;20030;-67
2022/11/29 09:13:24;;;;;;;40.35;15.63;;;7.90;99.90;;;;;;4992340;28;20027;-67
2022/11/29 09:15:50;;;;;;;31.65;12.27;;;7.90;99.90;;;;;;4993748;28;20023;-67
2022/11/29 09:18:15;;;;;;;26.40;12.25;;;8.00;99.90;;;;;;4993014;28;20437;-67
2022/11/29 09:20:42;;;;;;;25.13;11.02;;;8.10;99.90;;;;;;4994011;28;20562;-67
2022/11/29 09:23:09;;;;;;;26.48;11.18;;;8.10;99.90;;;;;;4993809;28;20029;-67
2022/11/29 09:25:35;;;;;;;25.60;11.88;;;8.10;99.90;;;;;;4992599;28;20129;-67
2022/11/29 09:28:01;;;;;;;24.90;9.75;;;8.20;99.90;;;;;;4992332;28;20498;-67
2022/11/29 09:30:32;;;;;;;25.63;10.43;;;8.30;99.90;;;;;;4993577;28;20026;-67
2022/11/29 09:33:01;;;;;;;24.93;10.57;;;8.40;99.90;;;;;;4992797;28;20034;-67
2022/11/29 09:35:27;;;;;;;27.00;11.95;;;8.40;99.90;;;;;;4993530;28;20266;-67
2022/11/29 09:37:53;;;;;;;30.55;11.68;;;8.50;99.90;;;;;;4992276;28;20184;-67
2022/11/29 09:40:24;;;;;;;24.55;11.70;;;8.60;99.90;;;;;;4992579;28;20086;-67
2022/11/29 09:42:49;;;;;;;26.33;11.02;;;8.60;99.90;;;;;;4993474;28;20042;-66
2022/11/29 09:45:23;;;;;;;24.17;11.10;;;8.70;99.90;;;;;;4993089;28;20019;-66
2022/11/29 09:48:27;;;;;;;31.23;12.05;;;8.80;99.90;;;;;;4995807;28;20057;-66
2022/11/29 09:51:17;;;;;;;29.13;11.10;;;9.00;99.90;;;;;;4996985;28;20037;-66
2022/11/29 09:53:55;;;;;;;28.85;11.27;;;9.10;99.90;;;;;;4996972;28;20037;-67
2022/11/29 09:56:32;;;;;;;29.15;12.55;;;9.20;99.90;;;;;;4997055;28;20030;-67
2022/11/29 09:59:08;;;;;;;29.67;11.40;;;9.20;99.90;;;;;;4995579;28;20088;-67
2022/11/29 10:01:38;;;;;;;28.55;11.35;;;9.30;99.90;;;;;;4996292;28;20090;-67
2022/11/29 10:04:10;;;;;;;25.77;10.60;;;9.20;99.90;;;;;;4996633;28;20045;-67
2022/11/29 10:06:42;;;;;;;32.15;11.55;;;9.20;99.90;;;;;;4996781;28;20030;-67
2022/11/29 10:09:53;;;;;;;26.40;10.85;;;9.20;99.90;;;;;;4996110;28;20053;-67
2022/11/29 10:12:41;;;;;;;21.38;10.30;;;9.20;99.90;;;;;;4993636;28;20030;-66
2022/11/29 10:15:18;;;;;;;28.13;10.68;;;9.30;99.90;;;;;;4981791;28;20042;-67
2022/11/29 10:18:00;;;;;;;23.13;10.80;;;9.30;99.90;;;;;;4996378;28;20026;-67
2022/11/29 10:20:30;;;;;;;22.08;8.95;;;9.40;99.90;;;;;;4995362;28;20026;-67
2022/11/29 10:23:01;;;;;;;28.63;11.10;;;9.40;99.90;;;;;;4997129;28;20110;-67
2022/11/29 10:25:36;;;;;;;26.45;10.10;;;9.40;99.90;;;;;;4996657;28;20033;-67
2022/11/29 10:28:03;;;;;;;27.23;10.88;;;9.30;99.90;;;;;;4995304;28;20030;-66
2022/11/29 10:30:33;;;;;;;34.35;11.85;;;9.30;99.90;;;;;;4994998;28;20030;-66
2022/11/29 10:32:59;;;;;;;31.38;11.15;;;9.30;99.90;;;;;;4995027;28;20038;-67
2022/11/29 10:35:26;;;;;;;25.83;11.52;;;9.20;99.90;;;;;;4996538;28;20050;-67
2022/11/29 10:37:54;;;;;;;28.17;10.43;;;9.20;99.90;;;;;;4996183;28;20022;-66
2022/11/29 10:40:28;;;;;;;23.50;10.18;;;9.30;99.90;;;;;;4996065;28;20027;-67
2022/11/29 10:42:54;;;;;;;25.80;11.70;;;9.30;99.90;;;;;;4995162;28;20026;-67
2022/11/29 10:45:36;;;;;;;31.58;11.55;;;9.30;99.90;;;;;;4996251;28;20512;-68
2022/11/29 10:48:17;;;;;;;31.08;12.10;;;9.30;99.90;;;;;;4995757;28;20030;-68
2022/11/29 10:50:47;;;;;;;29.35;11.00;;;9.10;99.90;;;;;;4994572;28;20031;-68
2022/11/29 10:53:34;;;;;;;31.58;10.85;;;8.90;99.90;;;;;;4994646;28;20026;-68
2022/11/29 10:56:08;;;;;;;32.25;12.07;;;8.90;99.90;;;;;;4995309;28;20114;-68
2022/11/29 10:58:34;;;;;;;24.85;11.18;;;8.90;99.90;;;;;;4995654;28;20022;-68
2022/11/29 11:01:08;;;;;;;26.58;11.18;;;8.90;99.90;;;;;;4994337;28;20026;-68
2022/11/29 11:03:43;;;;;;;35.13;12.48;;;8.90;99.90;;;;;;4994153;28;20046;-68
2022/11/29 11:06:16;;;;;;;30.88;12.20;;;8.90;99.90;;;;;;4994261;28;20030;-68
2022/11/29 11:09:04;;;;;;;27.50;11.48;;;8.90;99.90;;;;;;4995108;28;20037;-68
2022/11/29 11:11:31;;;;;;;24.58;11.25;;;8.90;99.90;;;;;;4954922;28;20383;-68
2022/11/29 11:14:03;;;;;;;33.65;12.60;;;8.90;99.90;;;;;;4994615;28;20029;-69
2022/11/29 11:16:29;;;;;;;26.23;11.25;;;8.90;99.90;;;;;;4995243;28;20377;-69
2022/11/29 11:18:55;;;;;;;28.08;11.48;;;8.90;99.90;;;;;;4995383;28;20022;-69
2022/11/29 11:21:23;;;;;;;30.88;12.48;;;9.00;99.90;;;;;;4995458;28;20034;-69
2022/11/29 11:23:54;;;;;;;28.70;11.40;;;8.90;99.90;;;;;;4993928;28;20505;-69
2022/11/29 11:26:20;;;;;;;28.17;12.13;;;8.80;99.90;;;;;;4993827;28;20031;-69
2022/11/29 11:28:45;;;;;;;28.88;12.30;;;8.90;99.90;;;;;;4994607;28;20026;-69
2022/11/29 11:31:12;;;;;;;26.25;11.95;;;9.00;99.90;;;;;;4994701;28;20034;-69
2022/11/29 11:33:43;;;;;;;27.15;12.80;;;8.90;99.90;;;;;;4994806;28;20031;-69
2022/11/29 11:36:22;;;;;;;27.73;12.17;;;8.90;99.90;;;;;;4995140;28;20041;-69
2022/11/29 11:38:54;;;;;;;29.95;12.40;;;9.00;99.90;;;;;;4994542;28;20026;-69
2022/11/29 11:44:37;;;;;;;29.35;12.60;;;8.90;99.90;;;;;;4995088;28;19921;-69
2022/11/29 11:47:06;;;;;;;30.27;13.32;;;8.90;99.90;;;;;;4988635;28;20038;-69
2022/11/29 11:49:45;;;;;;;26.73;10.98;;;9.00;99.90;;;;;;4993783;28;20052;-69
2022/11/29 11:52:35;;;;;;;34.92;11.93;;;9.00;99.90;;;;;;4993363;28;20037;-69
2022/11/29 11:55:06;;;;;;;33.75;12.63;;;9.10;99.90;;;;;;4994783;28;20042;-69
2022/11/29 11:57:32;;;;;;;26.87;12.37;;;9.10;99.90;;;;;;4994612;28;20026;-69
2022/11/29 11:59:59;;;;;;;28.92;12.25;;;9.20;99.90;;;;;;4993353;28;20341;-69
2022/11/29 12:02:36;;;;;;;31.67;11.95;;;9.30;99.90;;;;;;4994564;28;20473;-69
2022/11/29 12:05:09;;;;;;;28.27;11.50;;;9.20;99.90;;;;;;4994555;28;20022;-69
2022/11/29 12:07:44;;;;;;;27.50;11.48;;;9.20;99.90;;;;;;4993330;28;20027;-69
2022/11/29 12:10:38;;;;;;;26.17;11.68;;;9.20;99.90;;;;;;4993495;28;20030;-69
2022/11/29 12:13:04;;;;;;;24.27;12.30;;;9.30;99.90;;;;;;4992474;28;20049;-69
2022/11/29 12:15:39;;;;;;;29.65;13.02;;;9.20;99.90;;;;;;4994369;28;20022;-69
2022/11/29 12:18:39;;;;;;;24.75;10.63;;;9.10;99.90;;;;;;4993793;28;20112;-69
2022/11/29 12:21:12;;;;;;;30.17;12.70;;;9.10;99.90;;;;;;4980464;28;20149;-69
2022/11/29 12:23:52;;;;;;;28.75;12.13;;;9.10;99.90;;;;;;4994227;28;20018;-69
2022/11/29 12:26:24;;;;;;;24.52;11.27;;;9.20;99.90;;;;;;4992958;28;20393;-69
2022/11/29 12:28:50;;;;;;;26.67;11.35;;;9.10;99.90;;;;;;4994109;28;20109;-69
2022/11/29 12:31:53;;;;;;;25.50;11.27;;;9.20;99.90;;;;;;4993237;28;20117;-69
2022/11/29 12:34:37;;;;;;;26.00;11.40;;;9.30;99.90;;;;;;4994032;28;20023;-69
2022/11/29 12:37:12;;;;;;;21.05;10.43;;;9.30;99.90;;;;;;4994053;28;20034;-69
2022/11/29 12:40:01;;;;;;;26.35;11.00;;;9.40;99.90;;;;;;4994036;28;20031;-69
2022/11/29 12:42:35;;;;;;;18.40;9.27;;;9.40;99.90;;;;;;4992534;28;20517;-69
2022/11/29 12:45:07;;;;;;;23.45;10.27;;;9.40;99.90;;;;;;4992643;28;20030;-69
2022/11/29 12:48:01;;;;;;;17.70;9.25;;;9.50;99.90;;;;;;4992814;28;20029;-69
2022/11/29 12:50:43;;;;;;;22.20;10.43;;;9.40;99.90;;;;;;4992688;28;20034;-69
2022/11/29 12:53:35;;;;;;;27.48;11.50;;;9.40;99.90;;;;;;4992675;28;20027;-69
2022/11/29 12:56:13;;;;;;;22.73;10.27;;;9.30;99.90;;;;;;4994080;28;20030;-69
2022/11/29 12:59:07;;;;;;;23.02;11.50;;;9.20;99.90;;;;;;4992651;28;20026;-69
2022/11/29 13:01:42;;;;;;;22.35;10.98;;;9.20;99.90;;;;;;4993842;28;20053;-69
2022/11/29 13:04:37;;;;;;;26.92;11.90;;;9.20;99.90;;;;;;4993169;28;20023;-69
2022/11/29 13:07:12;;;;;;;23.92;11.27;;;9.10;99.90;;;;;;4993839;28;20062;-69
2022/11/29 13:10:14;;;;;;;21.88;11.10;;;9.10;99.90;;;;;;4993986;28;20026;-69
2022/11/29 13:12:54;;;;;;;21.30;10.70;;;9.10;99.90;;;;;;4944468;28;20039;-68
2022/11/29 13:15:23;;;;;;;23.33;10.38;;;9.20;99.90;;;;;;4992852;28;20120;-68
2022/11/29 13:18:03;;;;;;;21.35;10.85;;;9.30;99.90;;;;;;4992365;28;20030;-68
2022/11/29 13:20:37;;;;;;;22.58;11.13;;;9.40;99.90;;;;;;4992701;28;20037;-68
2022/11/29 13:23:09;;;;;;;25.60;10.98;;;9.50;99.90;;;;;;4997645;28;20066;-68
2022/11/29 13:25:42;;;;;;;20.95;10.65;;;9.50;99.90;;;;;;4996247;28;20057;-68
2022/11/29 13:28:27;;;;;;;21.70;9.98;;;9.40;99.90;;;;;;4996164;28;20062;-68
2022/11/29 13:30:59;;;;;;;23.13;11.55;;;9.30;99.90;;;;;;4997451;28;20034;-68
2022/11/29 13:34:00;;;;;;;22.90;11.43;;;9.30;99.90;;;;;;4996173;28;20083;-68